Agency Village, SD

5:28 AM CDT on September 16, 2014 (GMT -0500)
RAWS MARSHALL CO SD US | Change Station
CLOSE
Current Station
Personal Weather Station
Location: Lake City, SD
Elevation: 2009 ft
Nearby Weather Stations

Elev 2009 ft 45.80 °N, 97.45 °W | Updated 29 minutes ago

Clear
Clear
41 °F
Feels Like 36 °F
N
7
Wind Variable Wind from SSW
Gusts 9.0 mph

Today
High -- | Low -- °F
--% Chance of Precip.
Yesterday
High -- | Low -- °F
Precip. -- in
7:07 AM 7:37 PM
Waning Gibbous, 47% visible
Pressure 30.16 in
Visibility 10.0 miles
Clouds Clear
Windchill 36 °F
Dew Point 37 °F
Humidity 87%
Rainfall 0.00 in
Snow Depth 0 in
UV 0 out of 12
Pollen 2.90 out of 12
Air Quality Not available.
Flu Activity Not available.
METAR KETH 161016Z AUTO 20004KT 10SM CLR 03/02 A3016 RMK AO2

More Conditions Fewer Conditions

Pressure 30.16 in
Visibility 10.0 miles
Clouds Clear
Windchill 36 °F
Dew Point 37 °F
Humidity 87%
Rainfall 0.00 in
Snow Depth 0 in
UV 0 out of 12
Pollen 2.90 out of 12
Air Quality Not available.
Flu Activity Not available.
METAR KETH 161016Z AUTO 20004KT 10SM CLR 03/02 A3016 RMK AO2

More Conditions Fewer Conditions

10-Day Weather Forecast

Almanac

Astronomy

Sep. 16, 2014 Rise Set
Actual Time 7:07 AM CDT 7:37 PM CDT
Civil Twilight 6:37 AM CDT 8:07 PM CDT
Nautical Twilight 6:02 AM CDT 8:42 PM CDT
Astronomical Twilight 5:26 AM CDT 9:18 PM CDT
Moon 12:05 AM CDT 3:15 PM CDT
Length of Visible Light 13h 29m
Length of Day
12h 29m
Tomorrow will be 3m 10s shorter.
Waning Gibbous, 47% of the Moon is Illuminated
Today
Waning Gibbous
Sep 24
New
Oct 1
First Quarter
Oct 8
Full
Oct 15
Last Quarter

Today's Extremes

State Highs State Lows

Community

WunderPhotos

Upload Photos

1,753,718 photos uploaded!

WunderBlogs® & News

Nearby

Snow Depth

Station Depth Elevation
Blind Park 0 in 6890 ft

Earthquake Activity

City Distance Mag. Time & Date
No recent earthquake activity has been reported nearby.
Minimum magnitude displayed is 2.5.

Coastal Water Temperatures

Place Temperature
No Stations Reporting

Nearby Weather Stations